This is the latest recevied weather packets stored in our database for station/object SV3CQY. If no packets are shown the sender has not sent any weather packets the latest 10 day(s).
| Time | Temp. | Humidity | Pressure | Rain* | Wind** | Luminosity | Snow |
|---|---|---|---|---|---|---|---|
| 1777612531 | 14.44° C | 66% | 1016.1 hPa | 0 mm | - | - | - |
| 1777611629 | 14.44° C | 66% | 1015.9 hPa | 0 mm | - | - | - |
| 1777609514 | 15° C | 67% | 1015.4 hPa | 0 mm | - | - | - |
| 1777609210 | 15° C | 66% | 1015.3 hPa | 0 mm | - | - | - |
| 1777608932 | 15° C | 66% | 1015.3 hPa | 0 mm | - | - | - |
| 1777608028 | 15° C | 68% | 1014.9 hPa | 0 mm | - | - | - |
| 1777607712 | 15° C | 68% | 1014.8 hPa | 0 mm | - | - | - |
| 1777605922 | 15° C | 71% | 1014.5 hPa | 0 mm | - | - | - |
| 1777604430 | 15.56° C | 68% | 1014.4 hPa | 0 mm | - | - | - |
| 1777603812 | 16.11° C | 66% | 1014.3 hPa | 0 mm | - | - | - |
| 1777603210 | 16.11° C | 66% | 1014.3 hPa | 0 mm | - | - | - |
| 1777602910 | 16.11° C | 66% | 1014.2 hPa | 0 mm | - | - | - |
| 1777601725 | 16.67° C | 67% | 1014 hPa | 0 mm | - | - | - |
| 1777600830 | 16.67° C | 66% | 1013.9 hPa | 0 mm | - | - | - |
| 1777600510 | 16.67° C | 68% | 1013.7 hPa | 0 mm | - | - | - |
| 1777599934 | 16.67° C | 69% | 1013.7 hPa | 0 mm | - | - | - |
| 1777598127 | 16.67° C | 71% | 1013.7 hPa | 0 mm | - | - | - |
| 1777594209 | 17.78° C | 73% | 1013 hPa | 0 mm | - | - | - |
| 1777593628 | 17.78° C | 74% | 1013 hPa | 0 mm | - | - | - |
| 1777592412 | 18.89° C | 50% | 1013 hPa | 0 mm | - | - | - |
| 1777592112 | 18.89° C | 51% | 1013.1 hPa | 0 mm | - | - | - |
| 1777590328 | 18.33° C | 59% | 1013.1 hPa | 0 mm | - | - | - |
| 1777589133 | 17.78° C | 68% | 1013.1 hPa | 0 mm | - | - | - |
| 1777588811 | 17.78° C | 71% | 1013.2 hPa | 0 mm | - | - | - |
| 1777588229 | 17.78° C | 74% | 1013.2 hPa | 0 mm | - | - | - |
* Rain latest hour (hover to see other rain measurements)
** Current wind speed in m/s (hover to see current wind gust speed)